createdAt,value
2023-02-08T00:03:16.169Z,103270.19
2023-02-08T00:08:17.771Z,103260.25
2023-02-08T00:13:20.480Z,103250.16
2023-02-08T00:18:22.625Z,103250.09
2023-02-08T00:23:25.170Z,103254.81
2023-02-08T00:28:26.916Z,103248.28
2023-02-08T00:33:28.475Z,103257.34
2023-02-08T00:38:30.463Z,103240.78
2023-02-08T00:43:32.253Z,103244.53
2023-02-08T00:48:33.940Z,103247.56
2023-02-08T00:53:38.141Z,103248.66
2023-02-08T00:58:40.417Z,103249.56
2023-02-08T01:03:43.124Z,103242.88
2023-02-08T01:08:44.766Z,103241.72
2023-02-08T01:13:46.523Z,103234.56
2023-02-08T01:18:50.260Z,103232.69
2023-02-08T01:23:52.145Z,103229.66
2023-02-08T01:28:55.054Z,103231.28
2023-02-08T01:33:59.010Z,103228.50
2023-02-08T01:39:01.302Z,103231.91
2023-02-08T01:44:09.026Z,103229.66
2023-02-08T01:49:19.495Z,103219.75
2023-02-08T01:54:25.932Z,103208.66
2023-02-08T01:59:40.756Z,103214.34
2023-02-08T02:04:43.963Z,103217.63
2023-02-08T02:10:08.758Z,103217.16
2023-02-08T02:15:11.261Z,103203.66
2023-02-08T02:20:22.697Z,103209.75
2023-02-08T02:25:24.213Z,103204.44
2023-02-08T02:30:47.486Z,103212.47
2023-02-08T02:35:56.972Z,103207.94
2023-02-08T02:41:19.690Z,103202.44
2023-02-08T02:46:31.987Z,103194.72
2023-02-08T02:52:01.824Z,103207.38
2023-02-08T02:57:07.342Z,103193.91
2023-02-08T03:02:10.328Z,103193.97
2023-02-08T03:07:31.123Z,103200.69
2023-02-08T03:12:35.281Z,103195.91
2023-02-08T03:17:58.148Z,103203.16
2023-02-08T03:23:08.283Z,103206.06
2023-02-08T03:28:32.529Z,103204.69
2023-02-08T03:33:42.791Z,103207.81
2023-02-08T03:38:47.965Z,103217.50
2023-02-08T03:44:00.671Z,103216.09
2023-02-08T03:49:19.710Z,103219.00
2023-02-08T03:54:26.370Z,103210.72
2023-02-08T03:59:31.810Z,103212.53
2023-02-08T04:04:36.901Z,103199.81
2023-02-08T04:09:38.990Z,103211.00
2023-02-08T04:14:40.758Z,103198.00
2023-02-08T04:19:42.348Z,103193.22
2023-02-08T04:24:43.916Z,103187.31
2023-02-08T04:29:45.481Z,103186.75
2023-02-08T04:34:46.997Z,103183.34
2023-02-08T04:39:48.612Z,103187.59
2023-02-08T04:44:50.183Z,103196.09
2023-02-08T04:49:51.711Z,103196.56
2023-02-08T04:54:56.009Z,103202.75
2023-02-08T05:00:00.070Z,103209.19
2023-02-08T05:05:02.011Z,103199.31
2023-02-08T05:10:05.080Z,103198.13
2023-02-08T05:15:06.851Z,103196.22
2023-02-08T05:20:09.320Z,103197.00
2023-02-08T05:25:10.921Z,103203.94
2023-02-08T05:30:12.909Z,103205.72
2023-02-08T05:35:14.535Z,103202.34
2023-02-08T05:40:16.239Z,103199.66
2023-02-08T05:45:17.816Z,103194.97
2023-02-08T05:50:19.438Z,103206.50
2023-02-08T05:55:25.383Z,103197.81
2023-02-08T06:00:27.380Z,103199.16
2023-02-08T06:05:29.050Z,103204.41
2023-02-08T06:10:30.621Z,103198.28
2023-02-08T06:15:32.218Z,103202.84
2023-02-08T06:20:33.742Z,103208.16
2023-02-08T06:25:35.418Z,103201.50
2023-02-08T06:30:38.623Z,103200.25
2023-02-08T06:35:40.317Z,103216.59
2023-02-08T06:40:42.372Z,103219.06
2023-02-08T06:45:46.176Z,103222.00
2023-02-08T06:50:47.804Z,103221.72
2023-02-08T06:55:50.078Z,103215.03
2023-02-08T07:00:51.734Z,103217.13
2023-02-08T07:06:04.491Z,103212.59
2023-02-08T07:11:11.769Z,103215.66
2023-02-08T07:16:13.359Z,103205.44
2023-02-08T07:21:15.145Z,103194.13
2023-02-08T07:26:16.678Z,103192.09
2023-02-08T07:31:18.321Z,103189.22
2023-02-08T07:36:19.844Z,103191.59
2023-02-08T07:41:21.448Z,103198.31
2023-02-08T07:46:23.308Z,103191.00
2023-02-08T07:51:25.002Z,103186.75
2023-02-08T07:56:26.707Z,103194.38
2023-02-08T08:01:28.351Z,103189.16
2023-02-08T08:06:29.930Z,103186.94
2023-02-08T08:11:32.136Z,103186.56
2023-02-08T08:16:33.727Z,103184.63
2023-02-08T08:21:35.245Z,103182.44
2023-02-08T08:26:36.950Z,103180.63
2023-02-08T08:31:38.499Z,103174.94
2023-02-08T08:36:40.207Z,103173.47
2023-02-08T08:41:41.735Z,103175.88
2023-02-08T08:46:43.360Z,103185.09
2023-02-08T08:51:47.140Z,103174.38
2023-02-08T08:56:48.664Z,103177.09
2023-02-08T09:01:50.314Z,103178.25
2023-02-08T09:06:53.525Z,103174.41
2023-02-08T09:11:55.077Z,103181.03
2023-02-08T09:16:56.682Z,103177.19
2023-02-08T09:21:58.208Z,103176.50
2023-02-08T09:26:59.869Z,103183.72
2023-02-08T09:32:01.567Z,103177.47
2023-02-08T09:37:03.200Z,103180.69
2023-02-08T09:42:39.441Z,103178.31
2023-02-08T09:48:00.253Z,103173.91
2023-02-08T09:53:30.654Z,103181.25
2023-02-08T09:58:41.295Z,103177.72
2023-02-08T10:03:44.920Z,103161.03
2023-02-08T10:08:49.754Z,103169.31
2023-02-08T10:13:57.112Z,103176.72
2023-02-08T10:19:22.929Z,103174.22
2023-02-08T10:24:47.356Z,103171.78
2023-02-08T10:29:58.014Z,103161.72
2023-02-08T10:35:06.455Z,103158.13
2023-02-08T10:40:26.744Z,103158.50
2023-02-08T10:45:39.834Z,103154.75
2023-02-08T10:50:44.189Z,103155.50
2023-02-08T10:55:48.000Z,103149.53
2023-02-08T11:00:50.051Z,103141.09
2023-02-08T11:05:52.641Z,103128.41
2023-02-08T11:11:08.825Z,103134.28
2023-02-08T11:16:22.268Z,103128.94
2023-02-08T11:21:30.683Z,103134.72
2023-02-08T11:26:38.460Z,103132.28
2023-02-08T11:31:55.841Z,103135.97
2023-02-08T11:36:59.172Z,103136.16
2023-02-08T11:42:02.255Z,103122.69
2023-02-08T11:47:08.397Z,103113.75
2023-02-08T11:52:22.165Z,103099.09
2023-02-08T11:57:26.369Z,103084.50
2023-02-08T12:02:39.879Z,103075.00
2023-02-08T12:08:04.176Z,103087.56
2023-02-08T12:13:35.772Z,103080.41
2023-02-08T12:19:16.407Z,103060.72
2023-02-08T12:24:45.747Z,103050.66
2023-02-08T12:30:06.034Z,103049.78
2023-02-08T12:35:13.433Z,103039.78
2023-02-08T12:40:42.320Z,103030.56
2023-02-08T12:46:03.242Z,103020.38
2023-02-08T12:51:16.949Z,103011.66
2023-02-08T12:56:23.783Z,103001.22
2023-02-08T13:01:41.684Z,103002.16
2023-02-08T13:06:47.175Z,102987.22
2023-02-08T13:11:51.408Z,102984.50
2023-02-08T13:16:58.277Z,102990.19
2023-02-08T13:22:00.603Z,102995.25
2023-02-08T13:27:02.525Z,102974.16
2023-02-08T13:32:14.569Z,102969.13
2023-02-08T13:37:25.765Z,102960.28
2023-02-08T13:42:39.778Z,102950.94
2023-02-08T13:47:48.647Z,102949.34
2023-02-08T13:52:51.190Z,102938.28
2023-02-08T13:57:55.191Z,102922.34
2023-02-08T14:03:15.201Z,102913.06
2023-02-08T14:08:43.079Z,102922.69
2023-02-08T14:14:12.910Z,102913.19
2023-02-08T14:19:17.484Z,102910.34
2023-02-08T14:24:27.014Z,102906.06
2023-02-08T14:29:28.636Z,102899.97
2023-02-08T14:34:37.777Z,102896.53
2023-02-08T14:39:39.654Z,102894.28
2023-02-08T14:44:41.208Z,102890.81
2023-02-08T14:49:44.762Z,102884.09
2023-02-08T14:55:07.876Z,102889.63
2023-02-08T15:00:26.892Z,102880.09
2023-02-08T15:05:35.694Z,102885.31
2023-02-08T15:10:42.259Z,102882.44
2023-02-08T15:15:44.447Z,102867.47
2023-02-08T15:20:53.744Z,102863.91
2023-02-08T15:26:06.301Z,102866.38
2023-02-08T15:31:14.689Z,102867.38
2023-02-08T15:36:29.486Z,102857.47
2023-02-08T15:41:33.867Z,102850.78
2023-02-08T15:46:37.099Z,102856.09
2023-02-08T15:51:38.722Z,102852.66
2023-02-08T15:56:42.386Z,102849.41
2023-02-08T16:01:47.829Z,102847.81
2023-02-08T16:06:53.207Z,102837.63
2023-02-08T16:12:00.333Z,102824.78
2023-02-08T16:17:02.004Z,102825.25
2023-02-08T16:22:12.947Z,102810.19
2023-02-08T16:27:24.370Z,102818.34
2023-02-08T16:32:33.426Z,102806.72
2023-02-08T16:37:35.272Z,102811.19
2023-02-08T16:42:38.817Z,102812.56
2023-02-08T16:47:48.365Z,102814.53
2023-02-08T16:53:02.413Z,102820.19
2023-02-08T16:58:04.036Z,102815.22
2023-02-08T17:03:05.622Z,102808.69
2023-02-08T17:08:12.692Z,102808.81
2023-02-08T17:13:20.433Z,102792.41
2023-02-08T17:18:22.823Z,102786.94
2023-02-08T17:23:24.705Z,102778.19
2023-02-08T17:28:27.172Z,102777.50
2023-02-08T17:33:28.794Z,102765.34
2023-02-08T17:38:30.383Z,102766.53
2023-02-08T17:43:32.221Z,102763.84
2023-02-08T17:48:33.722Z,102766.03
2023-02-08T17:53:35.232Z,102772.13
2023-02-08T17:58:36.942Z,102762.31
2023-02-08T18:03:38.530Z,102763.38
2023-02-08T18:08:40.659Z,102762.31
2023-02-08T18:13:42.263Z,102760.59
2023-02-08T18:18:44.324Z,102761.84
2023-02-08T18:23:46.963Z,102771.16
2023-02-08T18:28:48.584Z,102768.13
2023-02-08T18:33:50.415Z,102760.22
2023-02-08T18:38:53.448Z,102767.16
2023-02-08T18:43:56.686Z,102764.16
2023-02-08T18:48:58.260Z,102752.59
2023-02-08T18:53:59.838Z,102759.28
2023-02-08T18:59:04.084Z,102755.28
2023-02-08T19:04:06.112Z,102758.53
2023-02-08T19:09:08.620Z,102759.97
2023-02-08T19:14:12.940Z,102754.31
2023-02-08T19:19:14.472Z,102752.09
2023-02-08T19:24:16.078Z,102745.97
2023-02-08T19:29:18.908Z,102741.78
2023-02-08T19:34:20.679Z,102745.69
2023-02-08T19:39:25.691Z,102744.06
2023-02-08T19:44:30.253Z,102743.00
2023-02-08T19:49:32.257Z,102740.09
2023-02-08T19:54:33.822Z,102746.38
2023-02-08T19:59:35.564Z,102738.09
2023-02-08T20:04:37.755Z,102728.97
2023-02-08T20:09:39.336Z,102718.38
2023-02-08T20:14:40.909Z,102711.25
2023-02-08T20:19:42.504Z,102712.56
2023-02-08T20:24:44.044Z,102712.28
2023-02-08T20:29:45.619Z,102718.88
2023-02-08T20:34:58.344Z,102723.59
2023-02-08T20:40:00.878Z,102717.53
2023-02-08T20:45:02.793Z,102714.09
2023-02-08T20:50:16.849Z,102708.28
2023-02-08T20:55:20.299Z,102702.53
2023-02-08T21:00:24.209Z,102704.06
2023-02-08T21:05:29.696Z,102701.94
2023-02-08T21:10:31.252Z,102719.59
2023-02-08T21:15:32.917Z,102709.66
2023-02-08T21:20:37.676Z,102707.03
2023-02-08T21:25:39.822Z,102699.50
2023-02-08T21:30:41.460Z,102704.22
2023-02-08T21:35:43.062Z,102698.97
2023-02-08T21:40:44.816Z,102701.94
2023-02-08T21:45:46.491Z,102704.94
2023-02-08T21:50:48.044Z,102701.44
2023-02-08T21:55:49.629Z,102699.91
2023-02-08T22:00:51.125Z,102686.25
2023-02-08T22:05:52.858Z,102684.09
2023-02-08T22:10:58.516Z,102690.16
2023-02-08T22:16:00.695Z,102688.31
2023-02-08T22:21:04.166Z,102691.44
2023-02-08T22:26:09.100Z,102690.22
2023-02-08T22:31:13.149Z,102685.16
2023-02-08T22:36:14.739Z,102688.34
2023-02-08T22:41:17.003Z,102672.13
2023-02-08T22:46:18.751Z,102672.41
2023-02-08T22:51:20.535Z,102685.50
2023-02-08T22:56:22.195Z,102676.28
2023-02-08T23:01:23.933Z,102681.53
2023-02-08T23:06:25.599Z,102688.50
2023-02-08T23:11:27.758Z,102698.56
2023-02-08T23:16:29.447Z,102693.41
2023-02-08T23:21:31.098Z,102695.53
2023-02-08T23:26:32.823Z,102688.81
2023-02-08T23:31:34.596Z,102685.44
2023-02-08T23:36:36.258Z,102677.53
2023-02-08T23:41:37.855Z,102675.59
2023-02-08T23:46:39.996Z,102676.28
2023-02-08T23:51:41.582Z,102678.38
2023-02-08T23:56:43.105Z,102670.69
